createdAt,value
2018-12-07T00:00:41.484Z,4.80
2018-12-07T00:03:10.739Z,5.30
2018-12-07T00:05:39.919Z,5.67
2018-12-07T00:08:09.125Z,6.43
2018-12-07T00:10:38.315Z,5.03
2018-12-07T00:13:07.557Z,5.60
2018-12-07T00:15:37.308Z,7.57
2018-12-07T00:18:06.496Z,6.07
2018-12-07T00:20:37.186Z,6.80
2018-12-07T00:23:06.668Z,6.00
2018-12-07T00:25:36.043Z,5.57
2018-12-07T00:28:05.237Z,5.97
2018-12-07T00:30:42.183Z,5.17
2018-12-07T00:33:11.527Z,4.13
2018-12-07T00:35:42.454Z,5.70
2018-12-07T00:38:11.853Z,3.50
2018-12-07T00:40:41.154Z,4.30
2018-12-07T00:43:10.762Z,6.17
2018-12-07T00:45:40.019Z,5.20
2018-12-07T00:48:09.241Z,5.83
2018-12-07T00:50:38.424Z,3.87
2018-12-07T00:53:07.650Z,5.63
2018-12-07T00:55:41.346Z,4.20
2018-12-07T01:00:08.100Z,5.93
2018-12-07T01:02:37.256Z,4.20
2018-12-07T01:05:07.431Z,4.17
2018-12-07T01:07:36.746Z,4.83
2018-12-07T01:10:07.239Z,5.97
2018-12-07T01:12:36.520Z,11.67
2018-12-07T01:15:05.877Z,5.27
2018-12-07T01:17:35.218Z,6.20
2018-12-07T01:20:04.948Z,9.97
2018-12-07T01:22:34.394Z,12.30
2018-12-07T01:25:03.646Z,11.97
2018-12-07T01:27:32.863Z,7.30
2018-12-07T01:30:02.148Z,6.00
2018-12-07T01:32:31.490Z,5.20
2018-12-07T01:35:00.709Z,5.87
2018-12-07T01:37:30.023Z,5.77
2018-12-07T01:39:59.231Z,5.57
2018-12-07T01:42:28.627Z,8.43
2018-12-07T01:44:57.935Z,9.57
2018-12-07T01:47:27.283Z,6.03
2018-12-07T01:49:56.529Z,5.93
2018-12-07T01:52:25.934Z,6.97
2018-12-07T01:54:55.578Z,8.90
2018-12-07T01:57:24.853Z,10.87
2018-12-07T01:59:54.366Z,7.57
2018-12-07T02:02:23.625Z,7.33
2018-12-07T02:04:54.077Z,5.67
2018-12-07T02:07:33.198Z,6.10
2018-12-07T02:10:02.531Z,5.90
2018-12-07T02:12:31.941Z,5.57
2018-12-07T02:15:01.377Z,5.47
2018-12-07T02:17:30.632Z,5.40
2018-12-07T02:19:59.950Z,6.10
2018-12-07T02:22:29.299Z,5.67
2018-12-07T02:24:59.728Z,5.50
2018-12-07T02:27:31.164Z,5.67
2018-12-07T02:30:00.384Z,5.63
2018-12-07T02:32:29.632Z,5.00
2018-12-07T02:34:58.985Z,6.17
2018-12-07T02:37:28.139Z,5.40
2018-12-07T02:39:57.308Z,4.23
2018-12-07T02:42:27.131Z,4.90
2018-12-07T02:44:56.344Z,4.63
2018-12-07T02:47:25.605Z,4.33
2018-12-07T02:49:54.960Z,4.27
2018-12-07T02:52:24.267Z,5.57
2018-12-07T02:54:53.439Z,5.80
2018-12-07T02:57:22.709Z,5.07
2018-12-07T02:59:51.966Z,8.27
2018-12-07T03:02:21.184Z,6.37
2018-12-07T03:04:50.493Z,8.20
2018-12-07T03:07:19.701Z,6.47
2018-12-07T03:09:48.902Z,7.00
2018-12-07T03:12:18.184Z,6.73
2018-12-07T03:14:47.458Z,6.57
2018-12-07T03:17:16.654Z,5.57
2018-12-07T03:19:46.262Z,7.97
2018-12-07T03:22:15.431Z,6.20
2018-12-07T03:24:44.658Z,5.60
2018-12-07T03:27:13.902Z,8.20
2018-12-07T03:29:43.063Z,6.40
2018-12-07T03:32:12.246Z,6.70
2018-12-07T03:34:41.470Z,5.83
2018-12-07T03:37:10.726Z,6.50
2018-12-07T03:39:39.913Z,5.77
2018-12-07T03:42:09.392Z,4.97
2018-12-07T03:44:38.610Z,5.97
2018-12-07T03:47:08.036Z,6.63
2018-12-07T03:49:37.248Z,7.40
2018-12-07T03:52:06.505Z,6.00
2018-12-07T03:54:35.673Z,6.23
2018-12-07T03:57:04.967Z,7.27
2018-12-07T03:59:34.178Z,6.63
2018-12-07T04:02:03.501Z,5.73
2018-12-07T04:04:32.848Z,5.90
2018-12-07T04:07:02.043Z,5.73
2018-12-07T04:09:31.273Z,4.87
2018-12-07T04:12:00.567Z,5.03
2018-12-07T04:14:29.797Z,4.70
2018-12-07T04:16:58.971Z,4.67
2018-12-07T04:19:28.324Z,4.60
2018-12-07T04:21:57.475Z,4.13
2018-12-07T04:24:26.706Z,4.83
2018-12-07T04:26:56.045Z,4.27
2018-12-07T04:29:25.250Z,5.10
2018-12-07T04:31:54.454Z,4.30
2018-12-07T04:34:23.878Z,4.10
2018-12-07T04:36:53.089Z,4.57
2018-12-07T04:39:22.289Z,5.43
2018-12-07T04:41:51.574Z,5.23
2018-12-07T04:44:20.780Z,4.97
2018-12-07T04:46:50.013Z,5.77
2018-12-07T04:49:19.343Z,5.73
2018-12-07T04:51:48.552Z,6.33
2018-12-07T04:54:17.750Z,6.60
2018-12-07T04:56:47.068Z,7.53
2018-12-07T04:59:16.296Z,6.37
2018-12-07T05:01:45.480Z,6.67
2018-12-07T05:04:14.777Z,5.63
2018-12-07T05:06:43.974Z,6.03
2018-12-07T05:09:13.198Z,5.10
2018-12-07T05:11:42.513Z,5.97
2018-12-07T05:14:11.661Z,6.10
2018-12-07T05:16:40.857Z,6.27
2018-12-07T05:19:10.143Z,5.47
2018-12-07T05:21:39.408Z,5.77
2018-12-07T05:24:08.654Z,5.43
2018-12-07T05:26:37.900Z,6.30
2018-12-07T05:29:07.054Z,5.93
2018-12-07T05:31:36.257Z,6.70
2018-12-07T05:34:05.566Z,4.80
2018-12-07T05:36:34.768Z,6.70
2018-12-07T05:39:05.131Z,5.43
2018-12-07T05:41:34.397Z,5.03
2018-12-07T05:44:03.589Z,6.77
2018-12-07T05:46:33.214Z,5.57
2018-12-07T05:49:02.514Z,5.57
2018-12-07T05:51:31.745Z,5.10
2018-12-07T05:54:00.920Z,6.20
2018-12-07T05:56:30.257Z,8.13
2018-12-07T05:58:59.453Z,6.20
2018-12-07T06:01:28.618Z,5.93
2018-12-07T06:03:57.945Z,7.00
2018-12-07T06:06:27.142Z,6.80
2018-12-07T06:08:56.298Z,7.07
2018-12-07T06:11:25.566Z,6.67
2018-12-07T06:13:54.698Z,5.83
2018-12-07T06:16:23.946Z,5.30
2018-12-07T06:18:53.247Z,5.20
2018-12-07T06:21:22.425Z,3.90
2018-12-07T06:23:51.593Z,4.70
2018-12-07T06:26:20.865Z,6.07
2018-12-07T06:28:50.014Z,4.47
2018-12-07T06:31:19.168Z,4.67
2018-12-07T06:33:48.414Z,5.43
2018-12-07T06:36:17.566Z,4.70
2018-12-07T06:38:46.777Z,5.27
2018-12-07T06:41:16.133Z,4.20
2018-12-07T06:43:46.244Z,3.97
2018-12-07T06:46:15.382Z,4.10
2018-12-07T06:48:44.688Z,4.47
2018-12-07T06:51:13.838Z,6.33
2018-12-07T06:53:42.992Z,4.93
2018-12-07T06:56:13.310Z,4.87
2018-12-07T06:58:42.459Z,5.70
2018-12-07T07:01:12.230Z,4.53
2018-12-07T07:03:41.434Z,5.40
2018-12-07T07:06:10.577Z,6.13
2018-12-07T07:08:39.918Z,5.60
2018-12-07T07:11:09.084Z,6.27
2018-12-07T07:13:38.285Z,4.87
2018-12-07T07:16:07.548Z,4.73
2018-12-07T07:18:36.735Z,5.77
2018-12-07T07:21:05.935Z,5.50
2018-12-07T07:23:35.215Z,6.07
2018-12-07T07:26:04.363Z,5.30
2018-12-07T07:28:33.512Z,6.20
2018-12-07T07:31:02.811Z,6.63
2018-12-07T07:33:31.987Z,6.90
2018-12-07T07:36:01.151Z,5.77
2018-12-07T07:38:30.401Z,5.80
2018-12-07T07:40:59.565Z,7.13
2018-12-07T07:43:28.786Z,6.17
2018-12-07T07:45:58.072Z,6.87
2018-12-07T07:48:27.302Z,7.30
2018-12-07T07:50:56.506Z,7.13
2018-12-07T07:53:25.956Z,6.80
2018-12-07T07:55:55.114Z,7.23
2018-12-07T07:58:24.372Z,9.50
2018-12-07T08:00:53.622Z,9.23
2018-12-07T08:03:22.813Z,9.00
2018-12-07T08:05:52.015Z,8.97
2018-12-07T08:08:21.215Z,7.37
2018-12-07T08:10:50.445Z,7.17
2018-12-07T08:13:19.652Z,9.87
2018-12-07T08:15:48.963Z,8.70
2018-12-07T08:18:18.287Z,9.10
2018-12-07T08:20:47.492Z,9.90
2018-12-07T08:23:16.698Z,8.00
2018-12-07T08:25:45.881Z,8.53
2018-12-07T08:28:15.046Z,9.77
2018-12-07T08:30:44.285Z,9.57
2018-12-07T08:33:13.457Z,10.50
2018-12-07T08:35:42.944Z,9.13
2018-12-07T08:38:12.250Z,8.37
2018-12-07T08:40:41.437Z,8.87
2018-12-07T08:43:10.685Z,8.23
2018-12-07T08:45:40.129Z,8.07
2018-12-07T08:48:09.284Z,8.33
2018-12-07T08:50:38.542Z,8.77
2018-12-07T08:53:07.830Z,7.80
2018-12-07T08:55:37.145Z,9.80
2018-12-07T08:58:06.369Z,7.80
2018-12-07T09:00:35.748Z,8.37
2018-12-07T09:03:05.157Z,8.87
2018-12-07T09:05:34.323Z,7.40
2018-12-07T09:08:03.558Z,9.73
2018-12-07T09:10:32.767Z,8.73
2018-12-07T09:13:01.957Z,7.83
2018-12-07T09:15:31.279Z,7.83
2018-12-07T09:18:00.470Z,7.83
2018-12-07T09:20:29.640Z,7.73
2018-12-07T09:22:58.987Z,6.23
2018-12-07T09:25:28.145Z,7.00
2018-12-07T09:27:57.306Z,6.93
2018-12-07T09:30:26.526Z,6.07
2018-12-07T09:32:55.686Z,5.37
2018-12-07T09:35:24.889Z,6.57
2018-12-07T09:37:54.098Z,6.43
2018-12-07T09:40:23.293Z,7.23
2018-12-07T09:42:53.944Z,6.73
2018-12-07T09:45:23.295Z,7.00
2018-12-07T09:47:52.514Z,6.63
2018-12-07T09:50:21.716Z,6.83
2018-12-07T09:52:50.957Z,7.33
2018-12-07T09:55:20.163Z,7.37
2018-12-07T09:57:49.343Z,6.13
2018-12-07T10:00:18.563Z,6.70
2018-12-07T10:02:47.805Z,7.83
2018-12-07T10:05:17.077Z,8.97
2018-12-07T10:07:46.407Z,7.73
2018-12-07T10:10:15.608Z,6.93
2018-12-07T10:12:44.791Z,6.67
2018-12-07T10:15:14.097Z,8.50
2018-12-07T10:17:43.300Z,7.67
2018-12-07T10:20:12.505Z,8.67
2018-12-07T10:22:41.778Z,6.97
2018-12-07T10:25:10.921Z,6.67
2018-12-07T10:27:40.132Z,6.30
2018-12-07T10:30:09.448Z,5.97
2018-12-07T10:32:38.634Z,5.37
2018-12-07T10:35:07.799Z,5.20
2018-12-07T10:37:37.091Z,5.03
2018-12-07T10:40:08.547Z,4.90
2018-12-07T10:42:37.756Z,4.90
2018-12-07T10:45:08.172Z,5.30
2018-12-07T10:47:37.349Z,5.50
2018-12-07T10:50:06.793Z,5.87
2018-12-07T10:52:36.142Z,5.30
2018-12-07T10:55:06.048Z,6.47
2018-12-07T10:57:35.237Z,5.87
2018-12-07T11:00:05.749Z,5.63
2018-12-07T11:02:40.250Z,5.20
2018-12-07T11:05:14.949Z,5.67
2018-12-07T11:07:49.481Z,5.10
2018-12-07T11:10:24.049Z,6.20
2018-12-07T11:12:58.661Z,6.20
2018-12-07T11:15:33.246Z,5.30
2018-12-07T11:18:07.682Z,6.13
2018-12-07T11:20:42.213Z,5.90
2018-12-07T11:23:16.794Z,6.33
2018-12-07T11:25:51.459Z,5.40
2018-12-07T11:28:25.802Z,5.40
2018-12-07T11:31:00.522Z,5.27
2018-12-07T11:33:36.486Z,5.27
2018-12-07T11:36:08.196Z,5.00
2018-12-07T11:38:37.091Z,6.00
2018-12-07T11:41:06.536Z,5.30
2018-12-07T11:43:35.760Z,5.83
2018-12-07T11:46:04.915Z,5.50
2018-12-07T11:48:34.393Z,6.17
2018-12-07T11:51:03.649Z,5.90
2018-12-07T11:53:32.802Z,6.67
2018-12-07T11:56:02.079Z,7.60
2018-12-07T11:58:31.249Z,6.00
2018-12-07T12:01:00.474Z,6.80
2018-12-07T12:03:29.844Z,6.40
2018-12-07T12:05:59.070Z,5.80
2018-12-07T12:08:28.589Z,6.13
2018-12-07T12:10:57.905Z,6.60
2018-12-07T12:13:27.100Z,6.53
2018-12-07T12:15:56.306Z,7.60
2018-12-07T12:18:25.651Z,7.53
2018-12-07T12:20:54.874Z,8.10
2018-12-07T12:23:24.090Z,7.93
2018-12-07T12:25:53.483Z,7.23
2018-12-07T12:28:22.692Z,7.80
2018-12-07T12:30:51.885Z,12.60
2018-12-07T12:33:21.161Z,16.57
2018-12-07T12:35:50.356Z,13.60
2018-12-07T12:38:19.516Z,14.17
2018-12-07T12:40:48.747Z,12.00
2018-12-07T12:43:17.996Z,10.87
2018-12-07T12:45:47.174Z,14.00
2018-12-07T12:48:16.598Z,8.63
2018-12-07T12:50:45.781Z,8.53
2018-12-07T12:53:14.938Z,9.60
2018-12-07T12:55:44.225Z,11.73
2018-12-07T12:58:13.547Z,10.10
2018-12-07T13:00:42.723Z,10.23
2018-12-07T13:03:12.889Z,10.77
2018-12-07T13:05:43.678Z,11.20
2018-12-07T13:08:13.195Z,9.50
2018-12-07T13:10:42.583Z,9.93
2018-12-07T13:13:11.830Z,10.83
2018-12-07T13:15:41.046Z,9.87
2018-12-07T13:18:10.365Z,8.10
2018-12-07T13:20:39.593Z,7.57
2018-12-07T13:23:08.805Z,6.90
2018-12-07T13:25:38.126Z,7.33
2018-12-07T13:28:07.354Z,5.87
2018-12-07T13:30:36.519Z,6.80
2018-12-07T13:33:05.847Z,5.87
2018-12-07T13:35:35.036Z,6.80
2018-12-07T13:38:04.354Z,5.17
2018-12-07T13:40:33.803Z,5.50
2018-12-07T13:43:03.067Z,6.30
2018-12-07T13:45:32.929Z,5.97
2018-12-07T13:48:03.231Z,4.90
2018-12-07T13:50:37.961Z,4.97
2018-12-07T13:53:07.413Z,5.03
2018-12-07T13:55:37.391Z,5.17
2018-12-07T13:58:06.617Z,5.40
2018-12-07T14:00:36.233Z,5.47
2018-12-07T14:03:05.523Z,5.93
2018-12-07T14:05:34.877Z,5.00
2018-12-07T14:08:04.397Z,6.63
2018-12-07T14:10:34.815Z,5.33
2018-12-07T14:13:04.108Z,5.43
2018-12-07T14:15:33.550Z,5.47
2018-12-07T14:18:03.064Z,3.67
2018-12-07T14:20:32.424Z,4.90
2018-12-07T14:23:02.056Z,4.10
2018-12-07T14:25:31.402Z,4.00
2018-12-07T14:28:00.734Z,3.67
2018-12-07T14:30:29.999Z,4.70
2018-12-07T14:32:59.539Z,4.27
2018-12-07T14:35:28.847Z,4.80
2018-12-07T14:37:58.224Z,4.30
2018-12-07T14:40:27.588Z,12.07
2018-12-07T14:42:56.937Z,6.23
2018-12-07T14:45:27.741Z,6.13
2018-12-07T14:47:57.082Z,5.20
2018-12-07T14:50:26.486Z,6.53
2018-12-07T14:52:57.622Z,6.80
2018-12-07T14:55:27.106Z,6.37
2018-12-07T14:57:56.435Z,6.90
2018-12-07T15:00:26.022Z,6.58
2018-12-07T15:02:55.617Z,6.40
2018-12-07T15:05:28.543Z,6.22
2018-12-07T15:07:57.894Z,4.47
2018-12-07T15:10:28.452Z,7.72
2018-12-07T15:13:01.604Z,4.90
2018-12-07T15:15:30.953Z,4.80
2018-12-07T15:18:00.175Z,3.95
2018-12-07T15:20:30.188Z,5.35
2018-12-07T15:23:00.073Z,4.95
2018-12-07T15:25:29.858Z,4.30
2018-12-07T15:27:59.344Z,4.15
2018-12-07T15:30:28.922Z,3.60
2018-12-07T15:32:58.378Z,5.67
2018-12-07T15:35:27.902Z,5.03
2018-12-07T15:37:57.440Z,3.90
2018-12-07T15:40:26.666Z,4.20
2018-12-07T15:42:55.962Z,4.17
2018-12-07T15:45:25.502Z,4.20
2018-12-07T15:47:54.782Z,4.35
2018-12-07T15:50:25.311Z,5.30
2018-12-07T15:52:55.167Z,4.03
2018-12-07T15:55:24.482Z,3.90
2018-12-07T15:57:54.193Z,6.80
2018-12-07T16:00:23.777Z,3.83
2018-12-07T16:02:54.086Z,4.33
2018-12-07T16:05:23.390Z,3.58
2018-12-07T16:07:52.780Z,3.50
2018-12-07T16:10:22.004Z,3.30
2018-12-07T16:12:51.400Z,4.80
2018-12-07T16:15:20.898Z,3.83
2018-12-07T16:17:50.217Z,4.00
2018-12-07T16:20:19.607Z,5.30
2018-12-07T16:22:48.956Z,3.90
2018-12-07T16:25:19.082Z,3.08
2018-12-07T16:27:49.957Z,4.17
2018-12-07T16:30:19.631Z,4.33
2018-12-07T16:32:48.919Z,4.45
2018-12-07T16:35:18.191Z,4.37
2018-12-07T16:37:47.751Z,4.78
2018-12-07T16:40:17.040Z,2.70
2018-12-07T16:42:46.341Z,5.70
2018-12-07T16:45:15.761Z,3.60
2018-12-07T16:47:44.999Z,4.37
2018-12-07T16:50:14.297Z,5.22
2018-12-07T16:52:43.678Z,4.20
2018-12-07T16:55:13.286Z,4.20
2018-12-07T16:57:42.770Z,4.05
2018-12-07T17:00:12.250Z,5.75
2018-12-07T17:02:41.608Z,4.15
2018-12-07T17:05:11.000Z,3.87
2018-12-07T17:07:40.494Z,4.85
2018-12-07T17:10:10.825Z,3.35
2018-12-07T17:12:40.146Z,4.17
2018-12-07T17:15:10.404Z,4.22
2018-12-07T17:17:39.821Z,3.90
2018-12-07T17:20:09.513Z,5.83
2018-12-07T17:22:39.788Z,3.27
2018-12-07T17:25:10.135Z,4.08
2018-12-07T17:27:39.500Z,3.20
2018-12-07T17:30:09.025Z,3.08
2018-12-07T17:32:38.428Z,2.72
2018-12-07T17:35:09.524Z,2.98
2018-12-07T17:37:39.019Z,3.45
2018-12-07T17:40:08.569Z,3.92
2018-12-07T17:42:38.065Z,3.52
2018-12-07T17:45:07.890Z,3.70
2018-12-07T17:47:37.249Z,3.10
2018-12-07T17:50:08.327Z,3.95
2018-12-07T17:52:43.010Z,4.60
2018-12-07T17:55:12.519Z,4.83
2018-12-07T17:57:41.773Z,4.03
2018-12-07T18:00:13.106Z,10.80
2018-12-07T18:02:42.338Z,3.15
2018-12-07T18:05:11.605Z,3.37
2018-12-07T18:07:41.195Z,2.40
2018-12-07T18:10:10.834Z,3.30
2018-12-07T18:12:40.192Z,3.20
2018-12-07T18:15:10.890Z,4.90
2018-12-07T18:17:40.497Z,4.30
2018-12-07T18:20:09.778Z,5.55
2018-12-07T18:22:39.345Z,3.55
2018-12-07T18:25:08.885Z,4.00
2018-12-07T18:27:38.398Z,4.55
2018-12-07T18:30:08.877Z,3.83
2018-12-07T18:32:38.781Z,5.58
2018-12-07T18:35:08.605Z,3.25
2018-12-07T18:37:38.060Z,3.15
2018-12-07T18:40:07.966Z,5.35
2018-12-07T18:42:37.305Z,4.22
2018-12-07T18:45:06.984Z,4.08
2018-12-07T18:47:36.403Z,3.90
2018-12-07T18:50:07.335Z,3.27
2018-12-07T18:52:36.540Z,2.92
2018-12-07T18:55:08.497Z,3.27
2018-12-07T18:57:39.384Z,3.75
2018-12-07T19:00:09.474Z,2.92
2018-12-07T19:02:38.876Z,4.08
2018-12-07T19:05:09.009Z,3.45
2018-12-07T19:07:38.401Z,3.92
2018-12-07T19:10:08.164Z,3.55
2018-12-07T19:12:37.694Z,5.42
2018-12-07T19:15:07.299Z,8.18
2018-12-07T19:17:36.747Z,2.62
2018-12-07T19:20:07.389Z,4.22
2018-12-07T19:22:36.633Z,3.52
2018-12-07T19:25:06.697Z,3.67
2018-12-07T19:27:36.221Z,4.45
2018-12-07T19:30:14.607Z,5.15
2018-12-07T19:32:40.384Z,4.37
2018-12-07T19:35:10.026Z,6.50
2018-12-07T19:37:39.644Z,3.22
2018-12-07T19:40:08.886Z,3.35
2018-12-07T19:42:38.196Z,4.03
2018-12-07T19:45:09.222Z,4.87
2018-12-07T19:47:38.871Z,2.58
2018-12-07T19:50:08.630Z,3.20
2018-12-07T19:52:38.142Z,2.90
2018-12-07T19:55:08.276Z,3.50
2018-12-07T19:57:38.364Z,3.87
2018-12-07T20:00:10.233Z,2.83
2018-12-07T20:02:39.526Z,5.47
2018-12-07T20:05:09.049Z,3.47
2018-12-07T20:07:38.662Z,4.15
2018-12-07T20:10:08.047Z,4.30
2018-12-07T20:12:37.679Z,4.92
2018-12-07T20:15:08.638Z,2.08
2018-12-07T20:17:39.642Z,3.67
2018-12-07T20:20:09.380Z,4.75
2018-12-07T20:22:38.854Z,4.00
2018-12-07T20:25:08.387Z,3.10
2018-12-07T20:27:38.059Z,3.80
2018-12-07T20:30:08.279Z,4.22
2018-12-07T20:32:37.561Z,3.47
2018-12-07T20:35:06.909Z,5.28
2018-12-07T20:37:36.187Z,4.97
2018-12-07T20:40:05.587Z,5.92
2018-12-07T20:42:35.197Z,3.92
2018-12-07T20:45:04.625Z,4.22
2018-12-07T20:47:33.908Z,4.22
2018-12-07T20:50:03.459Z,4.15
2018-12-07T20:52:32.805Z,4.35
2018-12-07T20:55:03.081Z,3.60
2018-12-07T20:57:32.868Z,4.22
2018-12-07T21:00:02.938Z,4.78
2018-12-07T21:02:32.440Z,6.78
2018-12-07T21:05:01.894Z,4.25
2018-12-07T21:07:51.959Z,3.50
2018-12-07T21:13:42.038Z,3.10
2018-12-07T21:16:32.128Z,4.17
2018-12-07T21:19:01.692Z,3.50
2018-12-07T21:21:31.171Z,4.12
2018-12-07T21:24:01.428Z,3.58
2018-12-07T21:26:30.676Z,4.50
2018-12-07T21:29:00.269Z,4.03
2018-12-07T21:31:29.599Z,4.28
2018-12-07T21:34:03.790Z,3.17
2018-12-07T21:36:37.895Z,5.60
2018-12-07T21:39:15.213Z,3.90
2018-12-07T21:41:44.782Z,4.10
2018-12-07T21:44:13.985Z,3.60
2018-12-07T21:46:43.375Z,3.67
2018-12-07T21:49:13.455Z,4.53
2018-12-07T21:52:02.622Z,4.12
2018-12-07T21:54:31.998Z,4.60
2018-12-07T21:57:01.231Z,4.42
2018-12-07T21:59:30.464Z,5.33
2018-12-07T22:01:59.751Z,4.78
2018-12-07T22:04:29.461Z,4.97
2018-12-07T22:06:59.031Z,4.97
2018-12-07T22:09:28.384Z,4.28
2018-12-07T22:11:57.596Z,6.55
2018-12-07T22:14:27.236Z,4.00
2018-12-07T22:16:56.585Z,4.22
2018-12-07T22:19:25.820Z,4.62
2018-12-07T22:21:55.415Z,3.95
2018-12-07T22:24:25.068Z,3.95
2018-12-07T22:26:54.298Z,5.20
2018-12-07T22:29:23.591Z,4.12
2018-12-07T22:31:53.129Z,4.65
2018-12-07T22:34:22.886Z,4.72
2018-12-07T22:36:52.384Z,4.58
2018-12-07T22:39:21.655Z,4.75
2018-12-07T22:41:51.109Z,4.92
2018-12-07T22:44:20.669Z,4.58
2018-12-07T22:46:50.208Z,4.90
2018-12-07T22:49:19.412Z,5.05
2018-12-07T22:51:48.694Z,4.90
2018-12-07T22:54:17.898Z,4.92
2018-12-07T22:56:47.228Z,4.80
2018-12-07T22:59:17.051Z,4.47
2018-12-07T23:01:46.560Z,5.65
2018-12-07T23:04:15.913Z,4.28
2018-12-07T23:06:45.994Z,3.90
2018-12-07T23:09:15.235Z,4.50
2018-12-07T23:11:44.413Z,5.15
2018-12-07T23:14:13.689Z,5.80
2018-12-07T23:16:46.366Z,4.70
2018-12-07T23:19:15.754Z,3.62
2018-12-07T23:21:45.079Z,4.87
2018-12-07T23:24:14.400Z,4.85
2018-12-07T23:26:45.241Z,7.35
2018-12-07T23:29:21.756Z,5.10
2018-12-07T23:31:51.070Z,6.85
2018-12-07T23:34:20.401Z,4.42
2018-12-07T23:36:50.692Z,4.72
2018-12-07T23:39:21.068Z,4.33
2018-12-07T23:41:51.598Z,5.05
2018-12-07T23:44:22.080Z,5.50
2018-12-07T23:46:51.383Z,5.72
2018-12-07T23:49:20.589Z,5.45
2018-12-07T23:51:52.093Z,5.33
2018-12-07T23:54:21.804Z,5.60
2018-12-07T23:56:51.019Z,8.53
2018-12-07T23:59:20.703Z,7.20
